sensor_id;sensor_type;location;lat;lon;timestamp;temperature;humidity
67529;DHT22;54366;51.980;5.856;2022-12-24T00:02:08;11.20;85.80
67529;DHT22;54366;51.980;5.856;2022-12-24T00:04:41;11.20;85.80
67529;DHT22;54366;51.980;5.856;2022-12-24T00:07:14;11.20;85.90
67529;DHT22;54366;51.980;5.856;2022-12-24T00:09:47;11.20;85.80
67529;DHT22;54366;51.980;5.856;2022-12-24T00:12:26;11.20;86.10
67529;DHT22;54366;51.980;5.856;2022-12-24T00:14:59;11.20;86.10
67529;DHT22;54366;51.980;5.856;2022-12-24T00:17:25;11.20;86.00
67529;DHT22;54366;51.980;5.856;2022-12-24T00:19:58;11.20;85.60
67529;DHT22;54366;51.980;5.856;2022-12-24T00:22:31;11.20;85.90
67529;DHT22;54366;51.980;5.856;2022-12-24T00:24:57;11.20;85.70
67529;DHT22;54366;51.980;5.856;2022-12-24T00:27:30;11.20;85.60
67529;DHT22;54366;51.980;5.856;2022-12-24T00:29:56;11.20;85.60
67529;DHT22;54366;51.980;5.856;2022-12-24T00:32:29;11.10;84.90
67529;DHT22;54366;51.980;5.856;2022-12-24T00:35:02;11.10;85.20
67529;DHT22;54366;51.980;5.856;2022-12-24T00:37:35;11.10;85.40
67529;DHT22;54366;51.980;5.856;2022-12-24T00:40:08;11.20;85.40
67529;DHT22;54366;51.980;5.856;2022-12-24T00:42:41;11.10;85.60
67529;DHT22;54366;51.980;5.856;2022-12-24T00:45:08;11.10;85.50
67529;DHT22;54366;51.980;5.856;2022-12-24T00:47:41;11.10;85.40
67529;DHT22;54366;51.980;5.856;2022-12-24T00:50:14;11.10;85.40
67529;DHT22;54366;51.980;5.856;2022-12-24T00:52:47;11.10;85.40
67529;DHT22;54366;51.980;5.856;2022-12-24T00:55:20;11.20;85.60
67529;DHT22;54366;51.980;5.856;2022-12-24T00:57:46;11.10;85.50
67529;DHT22;54366;51.980;5.856;2022-12-24T01:00:19;11.10;85.50
67529;DHT22;54366;51.980;5.856;2022-12-24T01:02:52;11.10;85.70
67529;DHT22;54366;51.980;5.856;2022-12-24T01:05:25;11.10;85.70
67529;DHT22;54366;51.980;5.856;2022-12-24T01:07:52;11.10;85.80
67529;DHT22;54366;51.980;5.856;2022-12-24T01:10:25;11.10;85.70
67529;DHT22;54366;51.980;5.856;2022-12-24T01:13:01;11.10;85.80
67529;DHT22;54366;51.980;5.856;2022-12-24T01:15:36;11.10;85.70
67529;DHT22;54366;51.980;5.856;2022-12-24T01:18:09;11.10;85.80
67529;DHT22;54366;51.980;5.856;2022-12-24T01:20:42;11.10;86.00
67529;DHT22;54366;51.980;5.856;2022-12-24T01:23:15;11.10;85.90
67529;DHT22;54366;51.980;5.856;2022-12-24T01:25:48;11.00;85.70
67529;DHT22;54366;51.980;5.856;2022-12-24T01:28:14;11.00;85.70
67529;DHT22;54366;51.980;5.856;2022-12-24T01:30:47;11.00;85.70
67529;DHT22;54366;51.980;5.856;2022-12-24T01:33:20;11.00;85.70
67529;DHT22;54366;51.980;5.856;2022-12-24T01:35:46;11.00;85.80
67529;DHT22;54366;51.980;5.856;2022-12-24T01:38:19;11.00;85.80
67529;DHT22;54366;51.980;5.856;2022-12-24T01:40:52;11.00;85.80
67529;DHT22;54366;51.980;5.856;2022-12-24T01:43:43;11.00;85.80
67529;DHT22;54366;51.980;5.856;2022-12-24T01:46:25;11.00;85.90
67529;DHT22;54366;51.980;5.856;2022-12-24T01:49:01;11.00;85.80
67529;DHT22;54366;51.980;5.856;2022-12-24T01:51:43;10.90;85.60
67529;DHT22;54366;51.980;5.856;2022-12-24T01:54:30;10.90;85.80
67529;DHT22;54366;51.980;5.856;2022-12-24T01:57:09;10.90;86.00
67529;DHT22;54366;51.980;5.856;2022-12-24T01:59:45;10.90;85.70
67529;DHT22;54366;51.980;5.856;2022-12-24T02:02:20;10.90;85.60
67529;DHT22;54366;51.980;5.856;2022-12-24T02:04:58;10.90;85.60
67529;DHT22;54366;51.980;5.856;2022-12-24T02:07:33;10.80;85.60
67529;DHT22;54366;51.980;5.856;2022-12-24T02:10:08;10.80;85.80
67529;DHT22;54366;51.980;5.856;2022-12-24T02:12:42;10.70;85.50
67529;DHT22;54366;51.980;5.856;2022-12-24T02:15:22;10.70;85.80
67529;DHT22;54366;51.980;5.856;2022-12-24T02:18:03;10.70;85.90
67529;DHT22;54366;51.980;5.856;2022-12-24T02:21:09;10.60;85.90
67529;DHT22;54366;51.980;5.856;2022-12-24T02:24:02;10.60;85.90
67529;DHT22;54366;51.980;5.856;2022-12-24T02:27:16;10.60;85.90
67529;DHT22;54366;51.980;5.856;2022-12-24T02:30:14;10.50;85.90
67529;DHT22;54366;51.980;5.856;2022-12-24T02:33:19;10.50;86.00
67529;DHT22;54366;51.980;5.856;2022-12-24T02:36:22;10.50;86.00
67529;DHT22;54366;51.980;5.856;2022-12-24T02:39:00;10.50;86.20
67529;DHT22;54366;51.980;5.856;2022-12-24T02:41:36;10.40;86.20
67529;DHT22;54366;51.980;5.856;2022-12-24T02:44:31;10.40;86.20
67529;DHT22;54366;51.980;5.856;2022-12-24T02:46:59;10.40;86.20
67529;DHT22;54366;51.980;5.856;2022-12-24T02:49:35;10.40;86.20
67529;DHT22;54366;51.980;5.856;2022-12-24T02:52:36;10.30;86.30
67529;DHT22;54366;51.980;5.856;2022-12-24T02:59:33;10.20;86.20
67529;DHT22;54366;51.980;5.856;2022-12-24T03:02:07;10.20;86.20
67529;DHT22;54366;51.980;5.856;2022-12-24T03:05:22;10.20;86.10
67529;DHT22;54366;51.980;5.856;2022-12-24T03:11:38;10.10;86.00
67529;DHT22;54366;51.980;5.856;2022-12-24T03:14:21;10.10;86.00
67529;DHT22;54366;51.980;5.856;2022-12-24T03:16:48;10.10;86.00
67529;DHT22;54366;51.980;5.856;2022-12-24T03:19:21;10.00;86.00
67529;DHT22;54366;51.980;5.856;2022-12-24T03:21:57;10.00;86.10
67529;DHT22;54366;51.980;5.856;2022-12-24T03:24:24;10.00;86.20
67529;DHT22;54366;51.980;5.856;2022-12-24T03:26:58;10.00;86.20
67529;DHT22;54366;51.980;5.856;2022-12-24T03:29:25;10.00;86.30
67529;DHT22;54366;51.980;5.856;2022-12-24T03:32:01;9.90;86.20
67529;DHT22;54366;51.980;5.856;2022-12-24T03:34:27;10.00;86.20
67529;DHT22;54366;51.980;5.856;2022-12-24T03:37:00;9.90;86.30
67529;DHT22;54366;51.980;5.856;2022-12-24T03:39:26;10.00;86.40
67529;DHT22;54366;51.980;5.856;2022-12-24T03:41:59;9.90;86.40
67529;DHT22;54366;51.980;5.856;2022-12-24T03:44:32;9.90;86.40
67529;DHT22;54366;51.980;5.856;2022-12-24T03:47:05;9.90;86.40
67529;DHT22;54366;51.980;5.856;2022-12-24T03:49:31;9.90;86.50
67529;DHT22;54366;51.980;5.856;2022-12-24T03:52:04;9.90;86.60
67529;DHT22;54366;51.980;5.856;2022-12-24T03:54:37;9.90;86.60
67529;DHT22;54366;51.980;5.856;2022-12-24T03:57:04;9.90;86.60
67529;DHT22;54366;51.980;5.856;2022-12-24T03:59:37;10.00;86.70
67529;DHT22;54366;51.980;5.856;2022-12-24T04:02:10;10.00;87.30
67529;DHT22;54366;51.980;5.856;2022-12-24T04:04:43;10.00;86.80
67529;DHT22;54366;51.980;5.856;2022-12-24T04:07:16;10.00;86.80
67529;DHT22;54366;51.980;5.856;2022-12-24T04:09:49;10.00;86.90
67529;DHT22;54366;51.980;5.856;2022-12-24T04:12:15;10.00;86.90
67529;DHT22;54366;51.980;5.856;2022-12-24T04:14:48;10.10;87.00
67529;DHT22;54366;51.980;5.856;2022-12-24T04:17:15;10.10;87.10
67529;DHT22;54366;51.980;5.856;2022-12-24T04:19:48;10.10;87.10
67529;DHT22;54366;51.980;5.856;2022-12-24T04:22:21;10.10;87.30
67529;DHT22;54366;51.980;5.856;2022-12-24T04:24:54;10.20;87.30
67529;DHT22;54366;51.980;5.856;2022-12-24T04:27:20;10.20;87.30
67529;DHT22;54366;51.980;5.856;2022-12-24T04:29:53;10.20;87.40
67529;DHT22;54366;51.980;5.856;2022-12-24T04:32:26;10.20;87.40
67529;DHT22;54366;51.980;5.856;2022-12-24T04:34:59;10.30;87.40
67529;DHT22;54366;51.980;5.856;2022-12-24T04:37:25;10.30;87.40
67529;DHT22;54366;51.980;5.856;2022-12-24T04:39:58;10.30;87.60
67529;DHT22;54366;51.980;5.856;2022-12-24T04:42:24;10.40;87.60
67529;DHT22;54366;51.980;5.856;2022-12-24T04:44:57;10.30;87.60
67529;DHT22;54366;51.980;5.856;2022-12-24T04:47:30;10.40;87.80
67529;DHT22;54366;51.980;5.856;2022-12-24T04:50:03;10.40;88.00
67529;DHT22;54366;51.980;5.856;2022-12-24T04:52:29;10.50;88.00
67529;DHT22;54366;51.980;5.856;2022-12-24T04:55:03;10.50;88.00
67529;DHT22;54366;51.980;5.856;2022-12-24T04:57:36;10.50;88.00
67529;DHT22;54366;51.980;5.856;2022-12-24T05:00:09;10.60;88.10
67529;DHT22;54366;51.980;5.856;2022-12-24T05:02:43;10.50;88.10
67529;DHT22;54366;51.980;5.856;2022-12-24T05:05:09;10.60;88.30
67529;DHT22;54366;51.980;5.856;2022-12-24T05:07:42;10.60;88.30
67529;DHT22;54366;51.980;5.856;2022-12-24T05:10:09;10.60;88.30
67529;DHT22;54366;51.980;5.856;2022-12-24T05:12:48;10.60;88.30
67529;DHT22;54366;51.980;5.856;2022-12-24T05:15:21;10.70;88.30
67529;DHT22;54366;51.980;5.856;2022-12-24T05:17:54;10.70;88.30
67529;DHT22;54366;51.980;5.856;2022-12-24T05:20:20;10.70;88.30
67529;DHT22;54366;51.980;5.856;2022-12-24T05:22:53;10.70;88.30
67529;DHT22;54366;51.980;5.856;2022-12-24T05:25:44;10.70;88.40
67529;DHT22;54366;51.980;5.856;2022-12-24T05:28:35;10.70;88.50
67529;DHT22;54366;51.980;5.856;2022-12-24T05:31:01;10.70;88.60
67529;DHT22;54366;51.980;5.856;2022-12-24T05:33:34;10.80;88.60
67529;DHT22;54366;51.980;5.856;2022-12-24T05:36:07;10.70;88.60
67529;DHT22;54366;51.980;5.856;2022-12-24T05:38:41;10.80;88.60
67529;DHT22;54366;51.980;5.856;2022-12-24T05:41:08;10.80;88.70
67529;DHT22;54366;51.980;5.856;2022-12-24T05:43:41;10.80;88.80
67529;DHT22;54366;51.980;5.856;2022-12-24T05:46:15;10.80;88.80
67529;DHT22;54366;51.980;5.856;2022-12-24T05:48:43;10.80;88.90
67529;DHT22;54366;51.980;5.856;2022-12-24T05:51:17;10.80;89.00
67529;DHT22;54366;51.980;5.856;2022-12-24T05:53:51;10.80;88.90
67529;DHT22;54366;51.980;5.856;2022-12-24T05:56:24;10.90;89.00
67529;DHT22;54366;51.980;5.856;2022-12-24T05:58:57;10.90;89.00
67529;DHT22;54366;51.980;5.856;2022-12-24T06:01:30;10.90;89.00
67529;DHT22;54366;51.980;5.856;2022-12-24T06:03:56;10.90;89.00
67529;DHT22;54366;51.980;5.856;2022-12-24T06:06:29;10.90;88.90
67529;DHT22;54366;51.980;5.856;2022-12-24T06:09:02;10.90;88.90
67529;DHT22;54366;51.980;5.856;2022-12-24T06:11:35;10.90;88.80
67529;DHT22;54366;51.980;5.856;2022-12-24T06:14:08;11.00;88.80
67529;DHT22;54366;51.980;5.856;2022-12-24T06:16:48;11.00;88.80
67529;DHT22;54366;51.980;5.856;2022-12-24T06:19:14;11.00;88.90
67529;DHT22;54366;51.980;5.856;2022-12-24T06:21:47;11.00;88.80
67529;DHT22;54366;51.980;5.856;2022-12-24T06:24:20;11.00;88.80
67529;DHT22;54366;51.980;5.856;2022-12-24T06:26:53;11.00;88.80
67529;DHT22;54366;51.980;5.856;2022-12-24T06:29:19;11.00;88.70
67529;DHT22;54366;51.980;5.856;2022-12-24T06:31:52;11.00;88.70
67529;DHT22;54366;51.980;5.856;2022-12-24T06:34:25;11.10;88.70
67529;DHT22;54366;51.980;5.856;2022-12-24T06:36:58;11.00;88.70
67529;DHT22;54366;51.980;5.856;2022-12-24T06:39:31;11.00;88.60
67529;DHT22;54366;51.980;5.856;2022-12-24T06:42:04;11.00;88.60
67529;DHT22;54366;51.980;5.856;2022-12-24T06:44:30;11.00;88.60
67529;DHT22;54366;51.980;5.856;2022-12-24T06:47:03;11.00;88.60
67529;DHT22;54366;51.980;5.856;2022-12-24T06:49:36;11.00;88.60
67529;DHT22;54366;51.980;5.856;2022-12-24T06:52:02;11.00;88.50
67529;DHT22;54366;51.980;5.856;2022-12-24T06:54:35;11.00;88.50
67529;DHT22;54366;51.980;5.856;2022-12-24T06:57:01;11.00;88.50
67529;DHT22;54366;51.980;5.856;2022-12-24T06:59:34;11.00;88.50
67529;DHT22;54366;51.980;5.856;2022-12-24T07:02:08;11.10;88.50
67529;DHT22;54366;51.980;5.856;2022-12-24T07:04:41;11.10;88.50
67529;DHT22;54366;51.980;5.856;2022-12-24T07:07:14;11.10;88.50
67529;DHT22;54366;51.980;5.856;2022-12-24T07:09:47;11.10;88.50
67529;DHT22;54366;51.980;5.856;2022-12-24T07:12:26;11.10;88.50
67529;DHT22;54366;51.980;5.856;2022-12-24T07:15:07;11.00;88.40
67529;DHT22;54366;51.980;5.856;2022-12-24T07:17:40;11.00;88.40
67529;DHT22;54366;51.980;5.856;2022-12-24T07:20:13;11.10;88.40
67529;DHT22;54366;51.980;5.856;2022-12-24T07:22:46;11.10;88.40
67529;DHT22;54366;51.980;5.856;2022-12-24T07:25:12;11.10;88.40
67529;DHT22;54366;51.980;5.856;2022-12-24T07:27:45;11.10;88.40
67529;DHT22;54366;51.980;5.856;2022-12-24T07:30:11;11.10;88.30
67529;DHT22;54366;51.980;5.856;2022-12-24T07:32:44;11.10;88.30
67529;DHT22;54366;51.980;5.856;2022-12-24T07:35:17;11.10;88.30
67529;DHT22;54366;51.980;5.856;2022-12-24T07:37:50;11.10;88.20
67529;DHT22;54366;51.980;5.856;2022-12-24T07:40:16;11.10;88.20
67529;DHT22;54366;51.980;5.856;2022-12-24T07:42:49;11.10;88.00
67529;DHT22;54366;51.980;5.856;2022-12-24T07:45:16;11.10;88.10
67529;DHT22;54366;51.980;5.856;2022-12-24T07:47:49;11.10;88.00
67529;DHT22;54366;51.980;5.856;2022-12-24T07:50:22;11.10;88.10
67529;DHT22;54366;51.980;5.856;2022-12-24T07:52:55;11.10;88.00
67529;DHT22;54366;51.980;5.856;2022-12-24T07:55:28;11.10;88.00
67529;DHT22;54366;51.980;5.856;2022-12-24T07:57:54;11.10;87.90
67529;DHT22;54366;51.980;5.856;2022-12-24T08:00:27;11.20;88.00
67529;DHT22;54366;51.980;5.856;2022-12-24T08:03:00;11.20;88.00
67529;DHT22;54366;51.980;5.856;2022-12-24T08:05:34;11.10;87.90
67529;DHT22;54366;51.980;5.856;2022-12-24T08:08:08;11.10;87.90
67529;DHT22;54366;51.980;5.856;2022-12-24T08:10:43;11.10;87.90
67529;DHT22;54366;51.980;5.856;2022-12-24T08:13:22;11.20;87.60
67529;DHT22;54366;51.980;5.856;2022-12-24T08:15:55;11.20;87.60
67529;DHT22;54366;51.980;5.856;2022-12-24T08:18:28;11.10;87.60
67529;DHT22;54366;51.980;5.856;2022-12-24T08:21:01;11.20;87.80
67529;DHT22;54366;51.980;5.856;2022-12-24T08:23:35;11.20;87.80
67529;DHT22;54366;51.980;5.856;2022-12-24T08:26:02;11.20;87.70
67529;DHT22;54366;51.980;5.856;2022-12-24T08:28:37;11.20;87.70
67529;DHT22;54366;51.980;5.856;2022-12-24T08:31:10;11.20;87.60
67529;DHT22;54366;51.980;5.856;2022-12-24T08:33:36;11.10;87.40
67529;DHT22;54366;51.980;5.856;2022-12-24T08:36:09;11.10;87.60
67529;DHT22;54366;51.980;5.856;2022-12-24T08:38:42;11.20;87.70
67529;DHT22;54366;51.980;5.856;2022-12-24T08:41:08;11.20;87.70
67529;DHT22;54366;51.980;5.856;2022-12-24T08:43:41;11.20;87.60
67529;DHT22;54366;51.980;5.856;2022-12-24T08:46:09;11.20;87.60
67529;DHT22;54366;51.980;5.856;2022-12-24T08:48:41;11.20;87.60
67529;DHT22;54366;51.980;5.856;2022-12-24T08:51:14;11.20;87.60
67529;DHT22;54366;51.980;5.856;2022-12-24T08:53:40;11.30;87.50
67529;DHT22;54366;51.980;5.856;2022-12-24T08:56:13;11.20;87.40
67529;DHT22;54366;51.980;5.856;2022-12-24T08:58:39;11.20;87.40
67529;DHT22;54366;51.980;5.856;2022-12-24T09:01:15;11.20;87.30
67529;DHT22;54366;51.980;5.856;2022-12-24T09:03:42;11.30;87.40
67529;DHT22;54366;51.980;5.856;2022-12-24T09:06:15;11.30;87.50
67529;DHT22;54366;51.980;5.856;2022-12-24T09:08:48;11.30;87.60
67529;DHT22;54366;51.980;5.856;2022-12-24T09:11:16;11.30;87.40
67529;DHT22;54366;51.980;5.856;2022-12-24T09:13:56;11.30;87.40
67529;DHT22;54366;51.980;5.856;2022-12-24T09:16:36;11.30;87.40
67529;DHT22;54366;51.980;5.856;2022-12-24T09:19:02;11.30;87.30
67529;DHT22;54366;51.980;5.856;2022-12-24T09:21:35;11.40;87.30
67529;DHT22;54366;51.980;5.856;2022-12-24T09:24:03;11.40;87.30
67529;DHT22;54366;51.980;5.856;2022-12-24T09:26:36;11.40;87.10
67529;DHT22;54366;51.980;5.856;2022-12-24T09:29:10;11.40;87.00
67529;DHT22;54366;51.980;5.856;2022-12-24T09:31:43;11.40;87.00
67529;DHT22;54366;51.980;5.856;2022-12-24T09:34:16;11.40;86.80
67529;DHT22;54366;51.980;5.856;2022-12-24T09:36:49;11.40;86.90
67529;DHT22;54366;51.980;5.856;2022-12-24T09:39:23;11.40;86.90
67529;DHT22;54366;51.980;5.856;2022-12-24T09:45:33;11.50;86.60
67529;DHT22;54366;51.980;5.856;2022-12-24T09:48:15;11.50;86.60
67529;DHT22;54366;51.980;5.856;2022-12-24T09:51:00;11.50;86.80
67529;DHT22;54366;51.980;5.856;2022-12-24T09:56:45;11.60;86.50
67529;DHT22;54366;51.980;5.856;2022-12-24T09:59:48;11.60;86.50
67529;DHT22;54366;51.980;5.856;2022-12-24T10:02:20;11.60;86.60
67529;DHT22;54366;51.980;5.856;2022-12-24T10:04:53;11.60;86.60
67529;DHT22;54366;51.980;5.856;2022-12-24T10:07:40;11.70;86.70
67529;DHT22;54366;51.980;5.856;2022-12-24T10:10:30;11.60;86.70
67529;DHT22;54366;51.980;5.856;2022-12-24T10:13:49;11.70;86.70
67529;DHT22;54366;51.980;5.856;2022-12-24T10:16:45;11.70;86.60
67529;DHT22;54366;51.980;5.856;2022-12-24T10:19:58;11.70;86.40
67529;DHT22;54366;51.980;5.856;2022-12-24T10:23:25;11.70;86.20
67529;DHT22;54366;51.980;5.856;2022-12-24T10:26:03;11.70;86.30
67529;DHT22;54366;51.980;5.856;2022-12-24T10:28:45;11.70;86.30
67529;DHT22;54366;51.980;5.856;2022-12-24T10:31:31;11.80;86.40
67529;DHT22;54366;51.980;5.856;2022-12-24T10:34:12;11.80;86.30
67529;DHT22;54366;51.980;5.856;2022-12-24T10:36:46;11.80;86.30
67529;DHT22;54366;51.980;5.856;2022-12-24T10:39:20;11.80;86.20
67529;DHT22;54366;51.980;5.856;2022-12-24T10:41:55;11.90;86.30
67529;DHT22;54366;51.980;5.856;2022-12-24T10:44:30;11.90;86.20
67529;DHT22;54366;51.980;5.856;2022-12-24T10:47:06;12.00;85.90
67529;DHT22;54366;51.980;5.856;2022-12-24T10:49:55;12.00;86.00
67529;DHT22;54366;51.980;5.856;2022-12-24T10:52:34;12.00;85.70
67529;DHT22;54366;51.980;5.856;2022-12-24T10:55:21;12.10;85.50
67529;DHT22;54366;51.980;5.856;2022-12-24T10:58:00;12.10;85.60
67529;DHT22;54366;51.980;5.856;2022-12-24T11:00:34;12.10;85.40
67529;DHT22;54366;51.980;5.856;2022-12-24T11:03:32;12.20;85.20
67529;DHT22;54366;51.980;5.856;2022-12-24T11:06:13;12.20;85.00
67529;DHT22;54366;51.980;5.856;2022-12-24T11:08:46;12.30;84.90
67529;DHT22;54366;51.980;5.856;2022-12-24T11:11:19;12.20;84.60
67529;DHT22;54366;51.980;5.856;2022-12-24T11:13:55;12.20;84.30
67529;DHT22;54366;51.980;5.856;2022-12-24T11:16:31;12.20;84.40
67529;DHT22;54366;51.980;5.856;2022-12-24T11:19:18;12.20;84.40
67529;DHT22;54366;51.980;5.856;2022-12-24T11:22:07;12.20;84.20
67529;DHT22;54366;51.980;5.856;2022-12-24T11:25:04;12.20;84.40
67529;DHT22;54366;51.980;5.856;2022-12-24T11:27:42;12.30;84.10
67529;DHT22;54366;51.980;5.856;2022-12-24T11:35:40;12.30;84.60
67529;DHT22;54366;51.980;5.856;2022-12-24T11:38:19;12.30;84.00
67529;DHT22;54366;51.980;5.856;2022-12-24T11:41:18;12.30;84.10
67529;DHT22;54366;51.980;5.856;2022-12-24T11:43:59;12.30;84.10
67529;DHT22;54366;51.980;5.856;2022-12-24T11:46:40;12.30;83.70
67529;DHT22;54366;51.980;5.856;2022-12-24T11:49:22;12.30;83.50
67529;DHT22;54366;51.980;5.856;2022-12-24T11:52:12;12.30;83.70
67529;DHT22;54366;51.980;5.856;2022-12-24T11:55:14;12.30;83.80
67529;DHT22;54366;51.980;5.856;2022-12-24T11:58:13;12.30;83.70
67529;DHT22;54366;51.980;5.856;2022-12-24T12:00:49;12.40;83.60
67529;DHT22;54366;51.980;5.856;2022-12-24T12:03:39;12.40;83.80
67529;DHT22;54366;51.980;5.856;2022-12-24T12:07:02;12.40;84.00
67529;DHT22;54366;51.980;5.856;2022-12-24T12:09:42;12.40;82.90
67529;DHT22;54366;51.980;5.856;2022-12-24T12:12:28;12.50;82.40
67529;DHT22;54366;51.980;5.856;2022-12-24T12:15:19;12.50;82.80
67529;DHT22;54366;51.980;5.856;2022-12-24T12:18:07;12.50;82.70
67529;DHT22;54366;51.980;5.856;2022-12-24T12:20:47;12.50;83.10
67529;DHT22;54366;51.980;5.856;2022-12-24T12:23:32;12.40;82.30
67529;DHT22;54366;51.980;5.856;2022-12-24T12:26:14;12.40;82.70
67529;DHT22;54366;51.980;5.856;2022-12-24T12:32:01;12.40;82.20
67529;DHT22;54366;51.980;5.856;2022-12-24T12:35:00;12.30;82.50
67529;DHT22;54366;51.980;5.856;2022-12-24T12:37:39;12.30;82.40
67529;DHT22;54366;51.980;5.856;2022-12-24T12:40:15;12.30;82.20
67529;DHT22;54366;51.980;5.856;2022-12-24T12:42:58;12.30;82.20
67529;DHT22;54366;51.980;5.856;2022-12-24T12:46:26;12.30;81.40
67529;DHT22;54366;51.980;5.856;2022-12-24T12:50:13;12.30;81.30
67529;DHT22;54366;51.980;5.856;2022-12-24T12:53:38;12.30;81.30
67529;DHT22;54366;51.980;5.856;2022-12-24T13:12:03;12.20;80.30
67529;DHT22;54366;51.980;5.856;2022-12-24T13:18:12;12.50;80.30
67529;DHT22;54366;51.980;5.856;2022-12-24T13:20:51;12.60;80.20
67529;DHT22;54366;51.980;5.856;2022-12-24T13:23:24;12.60;80.10
67529;DHT22;54366;51.980;5.856;2022-12-24T13:25:58;12.60;80.20
67529;DHT22;54366;51.980;5.856;2022-12-24T13:28:35;12.70;79.90
67529;DHT22;54366;51.980;5.856;2022-12-24T13:31:26;12.70;80.00
67529;DHT22;54366;51.980;5.856;2022-12-24T13:34:00;12.70;79.70
67529;DHT22;54366;51.980;5.856;2022-12-24T13:37:02;12.60;79.90
67529;DHT22;54366;51.980;5.856;2022-12-24T13:45:41;12.50;79.20
67529;DHT22;54366;51.980;5.856;2022-12-24T13:48:35;12.40;78.00
67529;DHT22;54366;51.980;5.856;2022-12-24T13:51:19;12.40;78.30
67529;DHT22;54366;51.980;5.856;2022-12-24T13:53:59;12.30;78.60
67529;DHT22;54366;51.980;5.856;2022-12-24T13:56:35;12.20;78.70
67529;DHT22;54366;51.980;5.856;2022-12-24T13:59:32;12.20;79.10
67529;DHT22;54366;51.980;5.856;2022-12-24T14:02:18;12.20;79.50
67529;DHT22;54366;51.980;5.856;2022-12-24T14:04:53;12.20;79.30
67529;DHT22;54366;51.980;5.856;2022-12-24T14:07:29;12.20;79.20
67529;DHT22;54366;51.980;5.856;2022-12-24T14:10:03;12.10;79.30
67529;DHT22;54366;51.980;5.856;2022-12-24T14:12:51;12.10;79.40
67529;DHT22;54366;51.980;5.856;2022-12-24T14:16:03;12.10;79.50
67529;DHT22;54366;51.980;5.856;2022-12-24T14:18:39;12.10;79.80
67529;DHT22;54366;51.980;5.856;2022-12-24T14:21:34;12.10;80.00
67529;DHT22;54366;51.980;5.856;2022-12-24T14:24:17;12.10;80.10
67529;DHT22;54366;51.980;5.856;2022-12-24T14:26:56;12.10;80.10
67529;DHT22;54366;51.980;5.856;2022-12-24T14:29:36;12.10;80.30
67529;DHT22;54366;51.980;5.856;2022-12-24T14:32:14;12.00;80.20
67529;DHT22;54366;51.980;5.856;2022-12-24T14:35:03;12.00;80.30
67529;DHT22;54366;51.980;5.856;2022-12-24T14:37:37;12.00;80.30
67529;DHT22;54366;51.980;5.856;2022-12-24T14:40:05;11.90;80.50
67529;DHT22;54366;51.980;5.856;2022-12-24T14:43:26;11.90;80.20
67529;DHT22;54366;51.980;5.856;2022-12-24T14:49:20;11.90;80.20
67529;DHT22;54366;51.980;5.856;2022-12-24T14:52:18;11.80;80.30
67529;DHT22;54366;51.980;5.856;2022-12-24T14:54:53;11.90;80.40
67529;DHT22;54366;51.980;5.856;2022-12-24T14:57:22;11.80;80.40
67529;DHT22;54366;51.980;5.856;2022-12-24T14:59:59;11.70;80.50
67529;DHT22;54366;51.980;5.856;2022-12-24T15:02:46;11.70;80.30
67529;DHT22;54366;51.980;5.856;2022-12-24T15:05:27;11.70;80.40
67529;DHT22;54366;51.980;5.856;2022-12-24T15:08:03;11.60;80.50
67529;DHT22;54366;51.980;5.856;2022-12-24T15:10:38;11.60;80.50
67529;DHT22;54366;51.980;5.856;2022-12-24T15:13:36;11.50;80.60
67529;DHT22;54366;51.980;5.856;2022-12-24T15:16:13;11.50;80.70
67529;DHT22;54366;51.980;5.856;2022-12-24T15:19:00;11.50;80.80
67529;DHT22;54366;51.980;5.856;2022-12-24T15:21:38;11.40;80.80
67529;DHT22;54366;51.980;5.856;2022-12-24T15:24:33;11.40;81.00
67529;DHT22;54366;51.980;5.856;2022-12-24T15:27:23;11.30;80.90
67529;DHT22;54366;51.980;5.856;2022-12-24T15:29:57;11.30;80.90
67529;DHT22;54366;51.980;5.856;2022-12-24T15:32:33;11.30;81.10
67529;DHT22;54366;51.980;5.856;2022-12-24T15:35:28;11.30;81.20
67529;DHT22;54366;51.980;5.856;2022-12-24T15:38:01;11.20;81.30
67529;DHT22;54366;51.980;5.856;2022-12-24T15:40:34;11.20;81.40
67529;DHT22;54366;51.980;5.856;2022-12-24T15:43:07;11.20;81.60
67529;DHT22;54366;51.980;5.856;2022-12-24T15:45:43;11.10;81.60
67529;DHT22;54366;51.980;5.856;2022-12-24T15:48:25;11.10;81.70
67529;DHT22;54366;51.980;5.856;2022-12-24T15:51:00;11.10;81.70
67529;DHT22;54366;51.980;5.856;2022-12-24T15:53:37;11.00;81.80
67529;DHT22;54366;51.980;5.856;2022-12-24T15:56:36;11.00;81.80
67529;DHT22;54366;51.980;5.856;2022-12-24T15:59:11;11.00;81.60
67529;DHT22;54366;51.980;5.856;2022-12-24T16:01:45;10.90;81.50
67529;DHT22;54366;51.980;5.856;2022-12-24T16:04:26;10.80;81.60
67529;DHT22;54366;51.980;5.856;2022-12-24T16:07:01;10.80;81.50
67529;DHT22;54366;51.980;5.856;2022-12-24T16:09:43;10.80;81.60
67529;DHT22;54366;51.980;5.856;2022-12-24T16:12:22;10.70;81.30
67529;DHT22;54366;51.980;5.856;2022-12-24T16:15:03;10.60;81.50
67529;DHT22;54366;51.980;5.856;2022-12-24T16:17:47;10.60;81.70
67529;DHT22;54366;51.980;5.856;2022-12-24T16:20:21;10.50;81.80
67529;DHT22;54366;51.980;5.856;2022-12-24T16:22:54;10.50;81.90
67529;DHT22;54366;51.980;5.856;2022-12-24T16:25:27;10.50;81.90
67529;DHT22;54366;51.980;5.856;2022-12-24T16:28:00;10.50;82.00
67529;DHT22;54366;51.980;5.856;2022-12-24T16:30:34;10.40;82.10
67529;DHT22;54366;51.980;5.856;2022-12-24T16:33:15;10.40;82.00
67529;DHT22;54366;51.980;5.856;2022-12-24T16:35:49;10.40;82.00
67529;DHT22;54366;51.980;5.856;2022-12-24T16:38:22;10.40;82.20
67529;DHT22;54366;51.980;5.856;2022-12-24T16:40:55;10.40;82.20
67529;DHT22;54366;51.980;5.856;2022-12-24T16:43:28;10.30;81.90
67529;DHT22;54366;51.980;5.856;2022-12-24T16:46:19;10.20;81.90
67529;DHT22;54366;51.980;5.856;2022-12-24T16:48:52;10.20;82.00
67529;DHT22;54366;51.980;5.856;2022-12-24T16:51:25;10.10;81.90
67529;DHT22;54366;51.980;5.856;2022-12-24T16:53:58;10.10;81.70
67529;DHT22;54366;51.980;5.856;2022-12-24T16:56:25;10.00;81.60
67529;DHT22;54366;51.980;5.856;2022-12-24T16:58:58;9.90;81.80
67529;DHT22;54366;51.980;5.856;2022-12-24T17:01:32;9.80;81.90
67529;DHT22;54366;51.980;5.856;2022-12-24T17:04:05;9.70;82.20
67529;DHT22;54366;51.980;5.856;2022-12-24T17:06:38;9.60;82.30
67529;DHT22;54366;51.980;5.856;2022-12-24T17:09:11;9.60;82.30
67529;DHT22;54366;51.980;5.856;2022-12-24T17:11:44;9.50;82.50
67529;DHT22;54366;51.980;5.856;2022-12-24T17:14:11;9.50;82.70
67529;DHT22;54366;51.980;5.856;2022-12-24T17:16:50;9.40;82.80
67529;DHT22;54366;51.980;5.856;2022-12-24T17:19:23;9.40;83.00
67529;DHT22;54366;51.980;5.856;2022-12-24T17:21:50;9.30;83.10
67529;DHT22;54366;51.980;5.856;2022-12-24T17:24:22;9.30;83.20
67529;DHT22;54366;51.980;5.856;2022-12-24T17:26:55;9.30;83.10
67529;DHT22;54366;51.980;5.856;2022-12-24T17:29:28;9.20;83.00